CW1020 Weather Reports


Display with metric or nautical units.
time (UTC)temp
F
wind
direction
speed
MPH
gust
MPH
rain 1hr
in
rain 24hr
in
rain mn
in
humidity
%
barometer
mb
20190525231711 64 282 11.0 17.0 0.00 0.00 0.00 41 1011.1
20190525230811 66 279 12.0 20.0 0.00 0.00 0.00 38 1011.0
20190525225911 68 278 13.0 21.0 0.00 0.00 0.00 38 1011.1
20190525225011 71 270 10.0 19.0 0.00 0.00 0.00 39 1011.1
20190525224111 72 270 5.0 13.0 0.00 0.00 0.00 37 1010.9
20190525223211 72 264 9.0 18.0 0.00 0.00 0.00 37 1011.1
20190525222311 72 244 8.0 23.0 0.00 0.00 0.00 37 1010.7
20190525221411 72 260 3.0 11.0 0.00 0.00 0.00 36 1011.1
20190525220511 71 233 5.0 12.0 0.00 0.00 0.00 38 1011.3
20190525215611 69 260 6.0 11.0 0.00 0.00 0.00 39 1011.2
20190525214711 69 307 4.0 10.0 0.00 0.00 0.00 38 1011.3
20190525213811 69 279 7.0 21.0 0.00 0.00 0.00 42 1011.5
20190525212911 69 327 4.0 10.0 0.00 0.00 0.00 41 1011.6
20190525212011 69 295 4.0 8.0 0.00 0.00 0.00 43 1011.8
20190525211111 68 266 7.0 13.0 0.00 0.00 0.00 48 1012.0
20190525210212 66 327 7.0 12.0 0.00 0.00 0.00 44 1012.0
20190525205311 67 324 7.0 13.0 0.00 0.00 0.00 46 1011.8
20190525204412 66 333 6.0 12.0 0.00 0.00 0.00 45 1011.9
20190525203512 66 341 5.0 13.0 0.00 0.00 0.00 44 1011.9
20190525202612 66 339 5.0 11.0 0.00 0.00 0.00 45 1011.9
20190525201712 65 318 8.0 16.0 0.00 0.00 0.00 47 1012.1
20190525200812 65 315 8.0 13.0 0.00 0.00 0.00 52 1012.1
20190525195912 64 328 8.0 14.0 0.00 0.00 0.00 51 1012.2
20190525195012 64 318 7.0 12.0 0.00 0.00 0.00 57 1012.4
20190525194112 64 329 8.0 16.0 0.00 0.00 0.00 55 1012.4
20190525193212 64 327 4.0 11.0 0.00 0.00 0.00 57 1012.5
20190525192312 63 326 6.0 13.0 0.00 0.00 0.00 59 1012.5
20190525191412 63 316 7.0 12.0 0.00 0.00 0.00 58 1012.5
20190525190512 63 327 7.0 12.0 0.00 0.00 0.00 58 1012.6
20190525185612 63 325 8.0 14.0 0.00 0.00 0.00 60 1012.7
20190525184712 62 328 7.0 14.0 0.00 0.00 0.00 62 1012.8
20190525183812 61 312 7.0 13.0 0.00 0.00 0.00 65 1012.9
20190525182912 61 327 9.0 17.0 0.00 0.00 0.00 66 1013.0
20190525182012 61 326 8.0 14.0 0.00 0.00 0.00 66 1013.0
20190525181112 61 326 9.0 15.0 0.00 0.00 0.00 66 1013.0
20190525180212 61 325 8.0 13.0 0.00 0.00 0.00 67 1013.0
20190525175313 61 320 9.0 16.0 0.00 0.00 0.00 67 1012.9
20190525174412 60 321 10.0 16.0 0.00 0.00 0.00 68 1012.9
20190525173512 60 313 10.0 15.0 0.00 0.00 0.00 70 1012.8
20190525172613 60 316 10.0 16.0 0.00 0.00 0.00 71 1012.8
20190525171713 59 333 9.0 15.0 0.00 0.00 0.00 70 1012.8
20190525170813 59 314 5.0 9.0 0.00 0.00 0.00 73 1012.8
20190525165913 59 315 5.0 10.0 0.00 0.00 0.00 72 1012.8
20190525165013 59 309 5.0 10.0 0.00 0.00 0.00 73 1012.9
20190525164113 58 305 5.0 9.0 0.00 0.00 0.00 73 1013.0
20190525163213 58 319 7.0 14.0 0.00 0.00 0.00 73 1013.0
20190525162313 58 331 7.0 14.0 0.00 0.00 0.00 72 1012.9
20190525161413 58 344 6.0 11.0 0.00 0.00 0.00 72 1013.0
20190525160513 58 337 6.0 10.0 0.00 0.00 0.00 71 1013.0
20190525155613 59 351 4.0 10.0 0.00 0.00 0.00 71 1013.0
20190525154713 59 63 2.0 5.0 0.00 0.00 0.00 73 1013.0
20190525153813 57 73 3.0 7.0 0.00 0.00 0.00 76 1013.1
20190525152913 56 41 2.0 4.0 0.00 0.00 0.00 81 1013.1
20190525152013 55 31 2.0 4.0 0.00 0.00 0.00 85 1012.8
20190525151113 53 311 1.0 3.0 0.00 0.00 0.00 90 1013.0
20190525150213 52 291 1.0 3.0 0.00 0.00 0.00 92 1013.0
20190525145313 51 256 1.0 3.0 0.00 0.00 0.00 93 1013.0
20190525144414 50 249 1.0 2.0 0.00 0.00 0.00 93 1012.9
20190525143514 49 248 0.0 1.0 0.00 0.00 0.00 93 1012.9
20190525142614 48 0 0.0 0.0 0.00 0.00 0.00 92 1012.9
20190525141714 48 248 0.0 1.0 0.00 0.00 0.00 92 1012.9
20190525140813 47 254 1.0 2.0 0.00 0.00 0.00 92 1012.8
20190525135914 46 257 0.0 1.0 0.00 0.00 0.00 91 1012.8
20190525135014 46 257 1.0 2.0 0.00 0.00 0.00 90 1012.7
20190525134114 46 258 0.0 1.0 0.00 0.00 0.00 90 1012.6
20190525133214 46 0 0.0 0.0 0.00 0.00 0.00 89 1012.5
20190525132314 46 258 0.0 3.0 0.00 0.00 0.00 89 1012.5
20190525131414 46 258 1.0 2.0 0.00 0.00 0.00 89 1012.5
20190525130514 46 257 0.0 1.0 0.00 0.00 0.00 89 1012.5
20190525125614 46 257 1.0 2.0 0.00 0.00 0.00 89 1012.5
20190525124714 47 257 1.0 2.0 0.00 0.00 0.00 90 1012.7
20190525123814 47 257 1.0 2.0 0.00 0.00 0.00 89 1012.6
20190525122914 47 262 1.0 3.0 0.00 0.00 0.00 89 1012.7
20190525122014 47 265 1.0 2.0 0.00 0.00 0.00 89 1012.7
20190525121114 47 264 1.0 3.0 0.00 0.00 0.00 88 1012.9
20190525120214 48 265 1.0 3.0 0.00 0.00 0.00 88 1012.8
20190525115314 48 265 0.0 2.0 0.00 0.00 0.00 87 1012.9
20190525114415 48 264 1.0 2.0 0.00 0.00 0.00 87 1013.0
20190525113514 48 265 1.0 2.0 0.00 0.00 0.00 87 1013.2
20190525112614 49 265 1.0 2.0 0.00 0.00 0.00 87 1013.3
20190525111715 49 266 1.0 2.0 0.00 0.00 0.00 86 1013.4
20190525110815 49 266 1.0 2.0 0.00 0.00 0.00 86 1013.6
20190525105915 50 266 1.0 3.0 0.00 0.00 0.00 86 1013.3
20190525105014 50 266 2.0 3.0 0.00 0.00 0.00 85 1013.4
20190525104115 50 267 3.0 4.0 0.00 0.00 0.00 86 1013.4
20190525103215 50 270 4.0 6.0 0.00 0.00 0.00 86 1013.4
20190525102315 50 269 4.0 5.0 0.00 0.00 0.00 87 1013.6
20190525101415 50 253 3.0 4.0 0.00 0.00 0.00 86 1013.6
20190525100515 50 244 2.0 4.0 0.00 0.00 0.00 86 1013.7
20190525095615 51 277 2.0 4.0 0.00 0.00 0.00 86 1013.8
20190525094715 51 281 1.0 2.0 0.00 0.00 0.00 86 1013.9
20190525093815 51 281 1.0 2.0 0.00 0.00 0.00 86 1014.0
20190525092915 51 281 1.0 2.0 0.00 0.00 0.00 86 1014.0
20190525092015 52 281 0.0 1.0 0.00 0.00 0.00 86 1014.1
20190525091115 52 281 1.0 1.0 0.00 0.00 0.00 86 1014.2
20190525090215 52 0 0.0 0.0 0.00 0.00 0.00 86 1014.3
20190525085315 52 0 0.0 0.0 0.00 0.00 0.00 86 1014.5
20190525084415 52 0 0.0 0.0 0.00 0.00 0.00 86 1014.6
20190525083515 52 0 0.0 0.0 0.00 0.00 0.00 86 1014.6
20190525082615 52 0 0.0 0.0 0.00 0.00 0.00 85 1014.6
20190525081715 52 0 0.0 0.0 0.00 0.00 0.00 86 1014.7
20190525080816 52 0 0.0 0.0 0.00 0.00 0.00 85 1014.8
20190525075915 52 0 0.0 0.0 0.00 0.00 0.00 85 1014.9
20190525075015 52 0 0.0 0.0 0.00 0.00 0.00 85 1015.0
20190525074116 52 0 0.0 0.0 0.00 0.00 0.00 84 1014.8
20190525073216 52 265 1.0 4.0 0.00 0.00 0.00 84 1014.8
20190525072316 52 261 1.0 4.0 0.00 0.00 0.00 84 1015.1
20190525071416 53 260 1.0 3.0 0.00 0.00 0.00 83 1015.1
20190525070516 53 260 1.0 2.0 0.00 0.00 0.00 84 1015.1
20190525065616 53 260 1.0 2.0 0.00 0.00 0.00 83 1015.2
20190525064716 53 260 1.0 3.0 0.00 0.00 0.00 83 1015.3
20190525063816 53 259 3.0 4.0 0.00 0.00 0.00 83 1015.4
20190525062916 53 262 2.0 3.0 0.00 0.00 0.00 83 1015.6
20190525062016 54 266 2.0 4.0 0.00 0.00 0.00 83 1015.8
20190525061116 54 279 1.0 4.0 0.00 0.00 0.00 82 1015.8
20190525060216 54 280 1.0 2.0 0.00 0.00 0.00 82 1015.8
20190525055316 54 307 1.0 3.0 0.00 0.00 0.00 81 1015.7
20190525054416 54 314 1.0 2.0 0.00 0.00 0.00 81 1015.7
20190525053517 54 314 1.0 3.0 0.00 0.00 0.00 81 1015.7
20190525052616 55 313 1.0 4.0 0.00 0.00 0.00 80 1015.6
20190525051717 55 293 1.0 4.0 0.00 0.00 0.00 80 1015.6
20190525050816 55 289 1.0 4.0 0.00 0.00 0.00 80 1015.6
20190525045916 55 305 2.0 4.0 0.00 0.00 0.00 80 1015.5
20190525045016 55 308 3.0 5.0 0.00 0.00 0.00 80 1015.5
20190525044116 56 293 2.0 5.0 0.00 0.00 0.00 80 1015.5
20190525043217 56 267 4.0 7.0 0.00 0.00 0.00 81 1015.4
20190525042317 56 271 2.0 7.0 0.00 0.00 0.00 81 1015.4
20190525041417 56 246 3.0 7.0 0.00 0.00 0.00 81 1015.4
20190525040516 56 247 4.0 8.0 0.00 0.00 0.00 81 1015.3
20190525035617 56 285 1.0 4.0 0.00 0.00 0.00 79 1015.3
20190525034717 56 273 2.0 5.0 0.00 0.00 0.00 80 1015.1
20190525033817 57 261 2.0 6.0 0.00 0.00 0.00 80 1015.0
20190525032917 57 259 2.0 4.0 0.00 0.00 0.00 79 1014.9
20190525032017 57 269 3.0 5.0 0.00 0.00 0.00 78 1014.9
20190525031117 57 270 4.0 6.0 0.00 0.00 0.00 77 1014.9
20190525030217 58 256 4.0 7.0 0.00 0.00 0.00 76 1014.9
20190525025317 58 256 3.0 5.0 0.00 0.00 0.00 73 1014.8
20190525024417 58 268 3.0 4.0 0.00 0.00 0.00 72 1014.8
20190525023517 58 285 3.0 5.0 0.00 0.00 0.00 71 1014.8
20190525022617 58 303 2.0 5.0 0.00 0.00 0.00 69 1014.7
20190525021717 59 323 2.0 4.0 0.00 0.00 0.00 69 1014.7
20190525020817 59 331 2.0 5.0 0.00 0.00 0.00 68 1014.7
20190525015917 59 307 3.0 5.0 0.00 0.00 0.00 69 1014.8
20190525015017 59 298 2.0 4.0 0.00 0.00 0.00 70 1014.7
20190525014117 59 313 5.0 8.0 0.00 0.00 0.00 69 1014.8
20190525013217 59 312 5.0 9.0 0.00 0.00 0.00 69 1014.8
20190525012317 59 307 5.0 9.0 0.00 0.00 0.00 69 1014.9
20190525011418 60 307 5.0 8.0 0.00 0.00 0.00 69 1015.0
20190525010518 60 297 6.0 12.0 0.00 0.00 0.00 69 1015.1
20190525005618 60 315 6.0 10.0 0.00 0.00 0.00 68 1014.8
20190525004718 61 322 7.0 13.0 0.00 0.02 0.00 67 1014.7
20190525003818 62 320 8.0 14.0 0.00 0.03 0.00 66 1014.7
20190525002918 62 317 8.0 13.0 0.00 0.03 0.00 67 1014.7
20190525002018 61 322 8.0 13.0 0.00 0.03 0.00 69 1014.8
20190525001118 60 326 7.0 13.0 0.00 0.03 0.00 69 1015.0
20190525000218 60 323 7.0 13.0 0.00 0.03 0.00 70 1015.0
20190524235318 60 311 6.0 13.0 0.00 0.03 0.00 69 1015.0
20190524234418 61 312 8.0 13.0 0.00 0.03 0.00 68 1015.0
20190524233518 62 302 7.0 11.0 0.00 0.03 0.00 70 1015.2
20190524232618 61 324 8.0 14.0 0.00 0.03 0.00 69 1015.0